PTSA/KSA METAR and TAF weather

Enter ICAO airport designator
Station Type Date Time Source
PTSA METAR 2019/05/25 01:50 UTC NOAA

PTSA 250150Z 34005KT 10SM BKN018CB BKN130 OVC300 29/25 A2983 RMK CB DSNT NW TCU N-SE LAST


Station Type Date Time Source
PTSA Decoded METAR 2019/05/25 01:50 UTC NOAA

Kosrae Island, Kosrae Airport, Micronesia, Federated States of (PTSA) 05-21N 162-57E
May 24, 2019 - 09:50 PM EDT / 2019.05.25 0150 UTC
Wind: from the NNW (340 degrees) at 6 MPH (5 KT):0
Visibility: 10 mile(s):0
Sky conditions: overcast
Weather: Cumulonimbus clouds, towering cumulus clouds observed
Temperature: 84 F (29 C)
Dew Point: 77 F (25 C)
Relative Humidity: 79%
Pressure (altimeter): 29.83 in. Hg (1010 hPa)
ob: PTSA 250150Z 34005KT 10SM BKN018CB BKN130 OVC300 29/25 A2983 RMK CB DSNT NW TCU N-SE LAST
cycle: 2

Station Type Date Time Source
PTSA TAF 2019/05/25 02:34 UTC NOAA

TAF
AMD PTSA 250213Z 2502/2524 VRB06KT P6SM VCSH BKN018 BKN130
TEMPO 2502/2504 4SM SHRA OVC018
FM250700 07007KT P6SM VCSH SCT018 BKN130

Example: see airport list